createdAt,value
2018-09-29T00:01:15.422Z,99.90
2018-09-29T00:03:45.120Z,99.90
2018-09-29T00:06:13.694Z,99.90
2018-09-29T00:08:42.088Z,99.90
2018-09-29T00:11:10.749Z,99.90
2018-09-29T00:13:39.087Z,99.90
2018-09-29T00:16:08.532Z,99.90
2018-09-29T00:18:37.143Z,99.90
2018-09-29T00:21:05.615Z,99.90
2018-09-29T00:23:34.323Z,99.90
2018-09-29T00:26:02.824Z,99.90
2018-09-29T00:28:31.226Z,99.90
2018-09-29T00:31:00.135Z,99.90
2018-09-29T00:33:28.822Z,99.90
2018-09-29T00:35:57.479Z,99.90
2018-09-29T00:38:25.866Z,99.90
2018-09-29T00:40:54.994Z,99.90
2018-09-29T00:43:23.900Z,99.90
2018-09-29T00:45:52.620Z,99.90
2018-09-29T00:48:21.957Z,99.90
2018-09-29T00:50:50.242Z,99.90
2018-09-29T00:53:18.616Z,99.90
2018-09-29T00:55:47.126Z,99.90
2018-09-29T00:58:15.385Z,99.90
2018-09-29T01:00:43.996Z,99.90
2018-09-29T01:03:12.526Z,99.90
2018-09-29T01:05:43.026Z,99.90
2018-09-29T01:08:12.219Z,99.90
2018-09-29T01:10:41.147Z,99.90
2018-09-29T01:13:10.209Z,99.90
2018-09-29T01:15:39.099Z,99.90
2018-09-29T01:18:08.279Z,99.90
2018-09-29T01:20:36.613Z,99.90
2018-09-29T01:23:05.007Z,99.90
2018-09-29T01:25:33.231Z,99.90
2018-09-29T01:28:01.847Z,99.90
2018-09-29T01:30:31.105Z,99.90
2018-09-29T01:33:00.512Z,99.90
2018-09-29T01:35:29.138Z,99.90
2018-09-29T01:37:58.225Z,99.90
2018-09-29T01:40:27.452Z,99.90
2018-09-29T01:42:56.052Z,99.90
2018-09-29T01:45:25.441Z,99.90
2018-09-29T01:47:54.108Z,99.90
2018-09-29T01:50:23.293Z,99.90
2018-09-29T01:52:53.348Z,99.90
2018-09-29T01:55:22.424Z,99.90
2018-09-29T01:57:51.527Z,99.90
2018-09-29T02:00:19.942Z,99.90
2018-09-29T02:02:48.406Z,99.90
2018-09-29T02:05:17.275Z,99.90
2018-09-29T02:07:45.775Z,99.90
2018-09-29T02:10:14.252Z,99.90
2018-09-29T02:12:42.735Z,99.90
2018-09-29T02:15:11.214Z,99.90
2018-09-29T02:17:39.716Z,99.90
2018-09-29T02:20:08.187Z,99.90
2018-09-29T02:22:36.834Z,99.90
2018-09-29T02:25:05.295Z,99.90
2018-09-29T02:27:33.874Z,99.90
2018-09-29T02:30:02.327Z,99.90
2018-09-29T02:32:30.829Z,99.90
2018-09-29T02:34:59.296Z,99.90
2018-09-29T02:37:27.752Z,99.90
2018-09-29T02:39:56.279Z,99.90
2018-09-29T02:42:25.301Z,99.90
2018-09-29T02:44:53.610Z,99.90
2018-09-29T02:47:22.212Z,99.90
2018-09-29T02:49:50.695Z,99.90
2018-09-29T02:52:19.188Z,99.90
2018-09-29T02:54:47.870Z,99.90
2018-09-29T02:57:17.359Z,99.90
2018-09-29T02:59:45.678Z,99.90
2018-09-29T03:02:14.025Z,99.90
2018-09-29T03:04:42.790Z,99.90
2018-09-29T03:07:11.347Z,99.90
2018-09-29T03:09:39.865Z,99.90
2018-09-29T03:12:08.351Z,99.90
2018-09-29T03:14:36.954Z,99.90
2018-09-29T03:17:05.430Z,99.90
2018-09-29T03:19:33.926Z,99.90
2018-09-29T03:22:02.837Z,99.90
2018-09-29T03:24:31.357Z,99.90
2018-09-29T03:26:59.865Z,99.90
2018-09-29T03:29:28.339Z,99.90
2018-09-29T03:31:56.973Z,99.90
2018-09-29T03:34:25.330Z,99.90
2018-09-29T03:36:54.147Z,99.90
2018-09-29T03:39:22.380Z,99.90
2018-09-29T03:41:50.846Z,99.90
2018-09-29T03:44:19.438Z,99.90
2018-09-29T03:46:47.848Z,99.90
2018-09-29T03:49:16.514Z,99.90
2018-09-29T03:51:45.210Z,99.90
2018-09-29T03:54:13.742Z,99.90
2018-09-29T03:56:42.706Z,99.90
2018-09-29T03:59:11.722Z,99.90
2018-09-29T04:01:40.636Z,99.90
2018-09-29T04:04:09.303Z,99.90
2018-09-29T04:06:37.961Z,99.90
2018-09-29T04:09:07.158Z,99.90
2018-09-29T04:11:36.251Z,99.90
2018-09-29T04:14:05.647Z,99.90
2018-09-29T04:16:33.985Z,99.90
2018-09-29T04:19:03.067Z,99.90
2018-09-29T04:21:35.500Z,99.90
2018-09-29T04:24:04.903Z,99.90
2018-09-29T04:26:33.482Z,99.90
2018-09-29T04:29:01.997Z,99.90
2018-09-29T04:31:30.303Z,99.90
2018-09-29T04:34:00.314Z,99.90
2018-09-29T04:36:28.559Z,99.90
2018-09-29T04:38:56.930Z,99.90
2018-09-29T04:41:25.132Z,99.90
2018-09-29T04:43:53.399Z,99.90
2018-09-29T04:46:21.882Z,99.90
2018-09-29T04:48:50.236Z,99.90
2018-09-29T04:51:18.915Z,99.90
2018-09-29T04:53:47.404Z,99.90
2018-09-29T04:56:15.644Z,99.90
2018-09-29T04:58:44.984Z,99.90
2018-09-29T05:01:13.319Z,99.90
2018-09-29T05:03:42.474Z,99.90
2018-09-29T05:06:10.973Z,99.90
2018-09-29T05:08:41.190Z,99.90
2018-09-29T05:11:09.552Z,99.90
2018-09-29T05:13:37.976Z,99.90
2018-09-29T05:16:06.761Z,99.90
2018-09-29T05:18:34.993Z,99.90
2018-09-29T05:21:03.348Z,99.90
2018-09-29T05:23:31.621Z,99.90
2018-09-29T05:25:59.975Z,99.90
2018-09-29T05:28:29.679Z,99.90
2018-09-29T05:30:58.595Z,99.90
2018-09-29T05:33:27.205Z,99.90
2018-09-29T05:35:55.906Z,99.90
2018-09-29T05:38:24.571Z,99.90
2018-09-29T05:40:52.983Z,99.90
2018-09-29T05:43:21.432Z,99.90
2018-09-29T05:45:51.490Z,99.90
2018-09-29T05:48:19.811Z,99.90
2018-09-29T05:50:49.238Z,99.90
2018-09-29T05:53:18.058Z,99.90
2018-09-29T05:55:47.665Z,99.90
2018-09-29T05:58:17.074Z,99.90
2018-09-29T06:00:45.673Z,99.90
2018-09-29T06:03:14.462Z,99.90
2018-09-29T06:05:43.742Z,99.90
2018-09-29T06:08:12.561Z,99.90
2018-09-29T06:10:41.813Z,99.90
2018-09-29T06:13:10.538Z,99.90
2018-09-29T06:15:39.188Z,99.90
2018-09-29T06:18:08.824Z,99.90
2018-09-29T06:20:37.659Z,99.90
2018-09-29T06:23:06.226Z,99.90
2018-09-29T06:25:34.450Z,99.90
2018-09-29T06:28:02.784Z,99.90
2018-09-29T06:30:30.988Z,99.90
2018-09-29T06:32:59.283Z,99.90
2018-09-29T06:35:27.548Z,99.90
2018-09-29T06:37:55.869Z,99.90
2018-09-29T06:40:24.069Z,99.90
2018-09-29T06:42:52.606Z,99.90
2018-09-29T06:45:20.846Z,99.90
2018-09-29T06:47:49.131Z,99.90
2018-09-29T06:50:17.431Z,99.90
2018-09-29T06:52:45.674Z,99.90
2018-09-29T06:55:13.985Z,99.90
2018-09-29T06:57:43.035Z,99.90
2018-09-29T07:00:11.637Z,99.90
2018-09-29T07:02:40.413Z,99.90
2018-09-29T07:05:08.992Z,99.90
2018-09-29T07:07:37.423Z,99.90
2018-09-29T07:10:05.718Z,99.90
2018-09-29T07:12:33.942Z,99.90
2018-09-29T07:15:02.136Z,99.90
2018-09-29T07:17:30.501Z,99.80
2018-09-29T07:19:58.798Z,99.40
2018-09-29T07:22:27.121Z,99.50
2018-09-29T07:24:55.664Z,99.60
2018-09-29T07:27:23.902Z,99.10
2018-09-29T07:29:52.233Z,98.90
2018-09-29T07:32:20.648Z,99.10
2018-09-29T07:34:48.827Z,98.90
2018-09-29T07:37:17.145Z,98.60
2018-09-29T07:39:45.566Z,98.40
2018-09-29T07:42:13.814Z,98.80
2018-09-29T07:44:42.179Z,98.70
2018-09-29T07:47:10.776Z,98.30
2018-09-29T07:49:39.204Z,98.20
2018-09-29T07:52:07.434Z,97.60
2018-09-29T07:54:35.717Z,97.30
2018-09-29T07:57:03.934Z,97.10
2018-09-29T07:59:32.114Z,97.30
2018-09-29T08:02:00.727Z,96.30
2018-09-29T08:04:29.564Z,96.60
2018-09-29T08:06:57.832Z,96.50
2018-09-29T08:09:26.211Z,96.00
2018-09-29T08:11:54.442Z,95.50
2018-09-29T08:14:23.105Z,95.50
2018-09-29T08:16:51.770Z,95.20
2018-09-29T08:19:20.261Z,95.10
2018-09-29T08:21:49.119Z,95.50
2018-09-29T08:24:17.781Z,95.60
2018-09-29T08:26:46.527Z,95.40
2018-09-29T08:29:14.832Z,95.10
2018-09-29T08:31:43.121Z,95.40
2018-09-29T08:34:12.410Z,95.40
2018-09-29T08:36:40.663Z,95.20
2018-09-29T08:39:09.643Z,94.70
2018-09-29T08:41:37.958Z,95.00
2018-09-29T08:44:06.766Z,94.90
2018-09-29T08:46:35.855Z,94.60
2018-09-29T08:49:04.115Z,94.50
2018-09-29T08:51:32.319Z,93.90
2018-09-29T08:54:00.704Z,93.90
2018-09-29T08:56:28.978Z,93.40
2018-09-29T08:58:57.442Z,93.90
2018-09-29T09:01:25.841Z,93.10
2018-09-29T09:03:54.105Z,93.10
2018-09-29T09:06:22.344Z,93.40
2018-09-29T09:08:50.592Z,93.10
2018-09-29T09:11:18.854Z,92.90
2018-09-29T09:13:47.003Z,92.30
2018-09-29T09:16:15.194Z,92.80
2018-09-29T09:18:43.426Z,93.50
2018-09-29T09:21:11.747Z,93.60
2018-09-29T09:23:40.024Z,92.90
2018-09-29T09:26:08.252Z,93.10
2018-09-29T09:28:36.625Z,93.20
2018-09-29T09:31:04.910Z,92.70
2018-09-29T09:33:33.224Z,92.70
2018-09-29T09:36:01.475Z,92.20
2018-09-29T09:38:29.886Z,91.80
2018-09-29T09:40:58.230Z,92.30
2018-09-29T09:43:26.512Z,91.40
2018-09-29T09:45:55.723Z,91.50
2018-09-29T09:48:23.950Z,90.90
2018-09-29T09:50:52.197Z,91.30
2018-09-29T09:53:20.426Z,91.10
2018-09-29T09:55:48.798Z,91.20
2018-09-29T09:58:17.307Z,91.10
2018-09-29T10:00:50.975Z,91.00
2018-09-29T10:03:24.595Z,90.60
2018-09-29T10:05:52.835Z,90.80
2018-09-29T10:08:21.079Z,91.10
2018-09-29T10:10:49.575Z,90.80
2018-09-29T10:13:17.884Z,90.70
2018-09-29T10:15:46.291Z,90.20
2018-09-29T10:18:14.521Z,90.30
2018-09-29T10:20:42.753Z,90.00
2018-09-29T10:23:11.113Z,90.00
2018-09-29T10:25:39.316Z,90.10
2018-09-29T10:28:07.691Z,90.10
2018-09-29T10:30:36.162Z,90.80
2018-09-29T10:33:04.371Z,90.00
2018-09-29T10:35:32.640Z,89.70
2018-09-29T10:38:00.920Z,90.50
2018-09-29T10:40:29.180Z,90.50
2018-09-29T10:42:57.711Z,90.10
2018-09-29T10:45:26.436Z,90.10
2018-09-29T10:47:54.723Z,90.60
2018-09-29T10:50:23.212Z,89.70
2018-09-29T10:52:51.925Z,90.40
2018-09-29T10:55:20.096Z,90.80
2018-09-29T10:57:48.478Z,90.60
2018-09-29T11:00:17.752Z,89.90
2018-09-29T11:02:46.103Z,91.10
2018-09-29T11:05:14.484Z,90.50
2018-09-29T11:07:42.868Z,90.90
2018-09-29T11:10:11.239Z,92.10
2018-09-29T11:12:40.022Z,92.50
2018-09-29T11:15:08.283Z,92.20
2018-09-29T11:17:36.635Z,92.50
2018-09-29T11:20:05.011Z,92.30
2018-09-29T11:22:33.275Z,92.80
2018-09-29T11:25:01.644Z,92.70
2018-09-29T11:27:30.049Z,92.80
2018-09-29T11:29:58.298Z,92.50
2018-09-29T11:32:26.494Z,93.10
2018-09-29T11:34:54.858Z,92.70
2018-09-29T11:37:23.222Z,92.80
2018-09-29T11:39:51.608Z,92.60
2018-09-29T11:42:19.978Z,92.30
2018-09-29T11:44:48.359Z,91.90
2018-09-29T11:47:16.575Z,92.40
2018-09-29T11:49:44.874Z,93.30
2018-09-29T11:52:13.070Z,93.20
2018-09-29T11:54:41.678Z,92.70
2018-09-29T11:57:10.122Z,93.10
2018-09-29T11:59:38.386Z,93.10
2018-09-29T12:02:06.748Z,93.10
2018-09-29T12:04:35.466Z,93.10
2018-09-29T12:07:03.735Z,93.00
2018-09-29T12:09:32.030Z,92.90
2018-09-29T12:12:00.313Z,93.00
2018-09-29T12:14:28.614Z,92.90
2018-09-29T12:16:57.094Z,92.20
2018-09-29T12:19:25.295Z,92.10
2018-09-29T12:21:53.562Z,91.70
2018-09-29T12:24:21.991Z,91.60
2018-09-29T12:26:50.163Z,91.10
2018-09-29T12:29:18.443Z,91.30
2018-09-29T12:31:46.781Z,91.30
2018-09-29T12:34:15.171Z,90.60
2018-09-29T12:36:43.427Z,90.60
2018-09-29T12:39:12.056Z,90.10
2018-09-29T12:41:40.264Z,90.30
2018-09-29T12:44:08.520Z,90.50
2018-09-29T12:46:37.127Z,89.70
2018-09-29T12:49:05.436Z,89.80
2018-09-29T12:51:33.813Z,89.30
2018-09-29T12:54:01.979Z,89.00
2018-09-29T12:56:30.302Z,89.40
2018-09-29T12:58:58.549Z,88.50
2018-09-29T13:01:26.768Z,88.50
2018-09-29T13:03:55.042Z,88.20
2018-09-29T13:06:24.092Z,87.80
2018-09-29T13:08:52.489Z,88.50
2018-09-29T13:11:20.998Z,88.50
2018-09-29T13:13:49.305Z,87.90
2018-09-29T13:16:17.998Z,88.20
2018-09-29T13:18:47.972Z,87.40
2018-09-29T13:21:16.457Z,86.10
2018-09-29T13:23:44.761Z,87.30
2018-09-29T13:26:13.262Z,86.30
2018-09-29T13:28:42.217Z,87.20
2018-09-29T13:31:11.230Z,87.10
2018-09-29T13:33:39.551Z,87.00
2018-09-29T13:36:09.715Z,86.10
2018-09-29T13:38:37.932Z,86.80
2018-09-29T13:41:06.151Z,86.30
2018-09-29T13:43:34.408Z,86.40
2018-09-29T13:46:02.736Z,86.40
2018-09-29T13:48:31.219Z,86.50
2018-09-29T13:50:59.381Z,84.80
2018-09-29T13:53:27.881Z,82.20
2018-09-29T13:55:56.188Z,82.20
2018-09-29T13:58:24.514Z,80.40
2018-09-29T14:00:52.932Z,80.70
2018-09-29T14:03:21.180Z,79.50
2018-09-29T14:05:49.443Z,80.90
2018-09-29T14:08:17.743Z,79.20
2018-09-29T14:10:46.603Z,79.70
2018-09-29T14:13:16.043Z,77.20
2018-09-29T14:15:44.795Z,78.30
2018-09-29T14:18:13.613Z,79.20
2018-09-29T14:20:42.429Z,78.50
2018-09-29T14:23:11.448Z,77.90
2018-09-29T14:25:40.710Z,77.10
2018-09-29T14:28:09.822Z,76.60
2018-09-29T14:30:38.180Z,78.30
2018-09-29T14:33:06.870Z,78.20
2018-09-29T14:35:35.271Z,78.50
2018-09-29T14:38:03.806Z,79.90
2018-09-29T14:40:32.259Z,76.80
2018-09-29T14:43:00.567Z,74.70
2018-09-29T14:45:28.915Z,73.50
2018-09-29T14:47:57.638Z,73.80
2018-09-29T14:50:26.041Z,76.10
2018-09-29T14:52:54.502Z,75.00
2018-09-29T14:55:22.811Z,74.60
2018-09-29T14:57:51.632Z,76.20
2018-09-29T15:00:19.886Z,75.10
2018-09-29T15:02:48.170Z,76.00
2018-09-29T15:05:16.642Z,76.20
2018-09-29T15:07:45.126Z,77.40
2018-09-29T15:10:13.351Z,79.00
2018-09-29T15:12:41.533Z,77.80
2018-09-29T15:15:10.095Z,77.80
2018-09-29T15:17:38.797Z,78.50
2018-09-29T15:20:07.601Z,78.10
2018-09-29T15:22:36.232Z,77.10
2018-09-29T15:25:05.197Z,78.10
2018-09-29T15:27:33.417Z,78.10
2018-09-29T15:30:02.010Z,78.80
2018-09-29T15:32:30.458Z,79.40
2018-09-29T15:34:58.804Z,80.30
2018-09-29T15:37:27.017Z,81.00
2018-09-29T15:39:55.461Z,81.90
2018-09-29T15:42:23.821Z,82.10
2018-09-29T15:44:52.144Z,83.00
2018-09-29T15:47:20.994Z,83.50
2018-09-29T15:49:49.244Z,84.20
2018-09-29T15:52:17.494Z,83.90
2018-09-29T15:54:46.022Z,83.10
2018-09-29T15:57:14.598Z,83.60
2018-09-29T15:59:43.004Z,84.00
2018-09-29T16:02:11.306Z,84.00
2018-09-29T16:04:40.206Z,84.50
2018-09-29T16:07:08.647Z,84.60
2018-09-29T16:09:36.963Z,84.80
2018-09-29T16:12:05.317Z,86.00
2018-09-29T16:14:33.574Z,87.50
2018-09-29T16:17:01.810Z,87.40
2018-09-29T16:19:30.079Z,88.10
2018-09-29T16:21:58.435Z,88.70
2018-09-29T16:24:26.845Z,88.60
2018-09-29T16:26:55.321Z,89.10
2018-09-29T16:29:23.687Z,89.70
2018-09-29T16:31:52.219Z,90.10
2018-09-29T16:34:20.409Z,90.00
2018-09-29T16:36:49.016Z,90.50
2018-09-29T16:39:17.542Z,90.60
2018-09-29T16:41:45.835Z,90.70
2018-09-29T16:44:14.186Z,91.00
2018-09-29T16:46:42.408Z,91.20
2018-09-29T16:49:10.604Z,91.50
2018-09-29T16:51:38.850Z,91.80
2018-09-29T16:54:07.140Z,92.00
2018-09-29T16:56:35.549Z,92.10
2018-09-29T16:59:03.931Z,92.50
2018-09-29T17:01:32.238Z,92.60
2018-09-29T17:04:00.584Z,93.00
2018-09-29T17:06:29.012Z,93.20
2018-09-29T17:08:57.341Z,93.40
2018-09-29T17:11:25.602Z,93.60
2018-09-29T17:13:53.968Z,93.90
2018-09-29T17:16:22.154Z,94.20
2018-09-29T17:18:50.937Z,94.50
2018-09-29T17:21:19.393Z,94.90
2018-09-29T17:23:47.808Z,94.90
2018-09-29T17:26:16.391Z,95.10
2018-09-29T17:28:45.816Z,95.20
2018-09-29T17:31:14.195Z,95.40
2018-09-29T17:33:42.739Z,95.50
2018-09-29T17:36:11.677Z,95.60
2018-09-29T17:38:40.623Z,95.70
2018-09-29T17:41:09.171Z,95.80
2018-09-29T17:43:37.722Z,95.90
2018-09-29T17:46:07.079Z,96.20
2018-09-29T17:48:35.406Z,96.10
2018-09-29T17:51:03.738Z,96.30
2018-09-29T17:53:32.295Z,96.30
2018-09-29T17:56:00.536Z,96.60
2018-09-29T17:58:28.830Z,96.80
2018-09-29T18:00:57.479Z,97.10
2018-09-29T18:03:26.034Z,97.40
2018-09-29T18:05:55.538Z,97.50
2018-09-29T18:08:23.843Z,97.70
2018-09-29T18:10:52.401Z,98.10
2018-09-29T18:13:21.152Z,98.20
2018-09-29T18:15:50.503Z,98.30
2018-09-29T18:18:19.012Z,98.60
2018-09-29T18:20:48.782Z,98.90
2018-09-29T18:23:17.689Z,99.60
2018-09-29T18:25:47.089Z,99.90
2018-09-29T18:28:16.454Z,99.90
2018-09-29T18:30:45.616Z,99.90
2018-09-29T18:33:14.215Z,99.90
2018-09-29T18:35:44.056Z,99.90
2018-09-29T18:38:12.679Z,99.90
2018-09-29T18:40:42.183Z,99.90
2018-09-29T18:43:10.774Z,99.90
2018-09-29T18:45:39.386Z,99.90
2018-09-29T18:48:07.866Z,99.90
2018-09-29T18:50:36.428Z,99.90
2018-09-29T18:53:05.332Z,99.90
2018-09-29T18:55:33.611Z,99.90
2018-09-29T18:58:01.927Z,99.90
2018-09-29T19:00:30.397Z,99.90
2018-09-29T19:02:59.110Z,99.90
2018-09-29T19:05:27.603Z,99.90
2018-09-29T19:07:56.151Z,99.90
2018-09-29T19:10:24.686Z,99.90
2018-09-29T19:12:54.151Z,99.90
2018-09-29T19:15:22.635Z,99.90
2018-09-29T19:17:51.261Z,99.90
2018-09-29T19:20:19.820Z,99.90
2018-09-29T19:22:48.298Z,99.90
2018-09-29T19:25:16.835Z,99.90
2018-09-29T19:27:45.217Z,99.90
2018-09-29T19:30:13.517Z,99.90
2018-09-29T19:32:41.903Z,99.90
2018-09-29T19:35:10.151Z,99.90
2018-09-29T19:37:39.488Z,99.90
2018-09-29T19:40:08.106Z,99.90
2018-09-29T19:42:36.774Z,99.90
2018-09-29T19:45:05.367Z,99.90
2018-09-29T19:47:33.794Z,99.90
2018-09-29T19:50:02.559Z,99.90
2018-09-29T19:52:31.058Z,99.90
2018-09-29T19:54:59.702Z,99.90
2018-09-29T19:57:28.696Z,99.90
2018-09-29T19:59:57.478Z,99.90
2018-09-29T20:02:26.243Z,99.90
2018-09-29T20:04:55.482Z,99.90
2018-09-29T20:07:24.716Z,99.90
2018-09-29T20:09:53.663Z,99.90
2018-09-29T20:12:22.410Z,99.90
2018-09-29T20:14:51.237Z,99.90
2018-09-29T20:17:20.366Z,99.90
2018-09-29T20:19:48.717Z,99.90
2018-09-29T20:22:17.286Z,99.90
2018-09-29T20:24:46.321Z,99.90
2018-09-29T20:27:14.667Z,99.90
2018-09-29T20:29:43.083Z,99.90
2018-09-29T20:32:11.409Z,99.90
2018-09-29T20:34:40.038Z,99.90
2018-09-29T20:37:08.678Z,99.90
2018-09-29T20:39:37.133Z,99.90
2018-09-29T20:42:05.732Z,99.90
2018-09-29T20:44:34.427Z,99.90
2018-09-29T20:47:02.898Z,99.90
2018-09-29T20:49:31.202Z,99.90
2018-09-29T20:51:59.460Z,99.90
2018-09-29T20:54:27.704Z,99.90
2018-09-29T20:56:56.331Z,99.90
2018-09-29T20:59:24.589Z,99.90
2018-09-29T21:01:53.964Z,99.90
2018-09-29T21:04:23.009Z,99.90
2018-09-29T21:06:51.294Z,99.90
2018-09-29T21:09:20.179Z,99.90
2018-09-29T21:11:48.752Z,99.90
2018-09-29T21:14:17.022Z,99.90
2018-09-29T21:16:45.548Z,99.90
2018-09-29T21:19:14.508Z,99.90
2018-09-29T21:21:42.832Z,99.90
2018-09-29T21:24:12.268Z,99.90
2018-09-29T21:26:41.286Z,99.90
2018-09-29T21:29:10.265Z,99.90
2018-09-29T21:31:38.512Z,99.90
2018-09-29T21:34:07.132Z,99.90
2018-09-29T21:36:37.001Z,99.90
2018-09-29T21:39:08.138Z,99.90
2018-09-29T21:41:37.111Z,99.90
2018-09-29T21:44:06.795Z,99.90
2018-09-29T21:46:35.624Z,99.90
2018-09-29T21:49:06.749Z,99.90
2018-09-29T21:51:35.530Z,99.90
2018-09-29T21:54:05.581Z,99.90
2018-09-29T21:56:34.615Z,99.90
2018-09-29T21:59:02.844Z,99.90
2018-09-29T22:01:32.755Z,99.90
2018-09-29T22:04:02.369Z,99.90
2018-09-29T22:06:31.327Z,99.90
2018-09-29T22:09:00.375Z,99.90
2018-09-29T22:11:29.171Z,99.90
2018-09-29T22:13:58.491Z,99.90
2018-09-29T22:16:27.463Z,99.90
2018-09-29T22:18:56.426Z,99.90
2018-09-29T22:21:24.965Z,99.90
2018-09-29T22:23:53.821Z,99.90
2018-09-29T22:26:22.823Z,99.90
2018-09-29T22:28:52.005Z,99.90
2018-09-29T22:31:21.102Z,99.90
2018-09-29T22:33:50.452Z,99.90
2018-09-29T22:36:19.434Z,99.90
2018-09-29T22:38:48.304Z,99.90
2018-09-29T22:41:19.524Z,99.90
2018-09-29T22:43:49.760Z,99.90
2018-09-29T22:46:18.397Z,99.90
2018-09-29T22:48:47.759Z,99.90
2018-09-29T22:51:16.316Z,99.90
2018-09-29T22:53:46.134Z,99.90
2018-09-29T22:56:15.030Z,99.90
2018-09-29T22:58:43.578Z,99.90
2018-09-29T23:01:12.282Z,99.90
2018-09-29T23:03:40.891Z,99.90
2018-09-29T23:06:09.559Z,99.90
2018-09-29T23:08:38.779Z,99.90
2018-09-29T23:11:07.302Z,99.90
2018-09-29T23:13:35.498Z,99.90
2018-09-29T23:16:05.060Z,99.90
2018-09-29T23:18:33.294Z,99.90
2018-09-29T23:21:02.757Z,99.90
2018-09-29T23:23:31.703Z,99.90
2018-09-29T23:26:00.082Z,99.90
2018-09-29T23:28:29.474Z,99.90
2018-09-29T23:30:57.887Z,99.90
2018-09-29T23:33:26.204Z,99.90
2018-09-29T23:35:54.727Z,99.90
2018-09-29T23:38:23.007Z,99.90
2018-09-29T23:40:51.490Z,99.90
2018-09-29T23:43:20.004Z,99.90
2018-09-29T23:45:48.271Z,99.90
2018-09-29T23:48:17.050Z,99.90
2018-09-29T23:50:45.254Z,99.90
2018-09-29T23:53:13.618Z,99.90
2018-09-29T23:55:42.071Z,99.90
2018-09-29T23:58:10.456Z,99.90
